sensor_id;sensor_type;location;lat;lon;timestamp;P1;durP1;ratioP1;P2;durP2;ratioP2
18190;SDS011;47004;51.366;12.348;2022-07-10T00:01:49;1.87;;;0.60;;
18190;SDS011;47004;51.366;12.348;2022-07-10T00:03:51;4.23;;;0.90;;
18190;SDS011;47004;51.366;12.348;2022-07-10T00:05:54;2.27;;;1.07;;
18190;SDS011;47004;51.366;12.348;2022-07-10T00:07:56;1.50;;;0.70;;
18190;SDS011;47004;51.366;12.348;2022-07-10T00:09:59;2.13;;;0.60;;
18190;SDS011;47004;51.366;12.348;2022-07-10T00:12:02;2.07;;;0.70;;
18190;SDS011;47004;51.366;12.348;2022-07-10T00:14:08;3.67;;;0.63;;
18190;SDS011;47004;51.366;12.348;2022-07-10T00:16:10;1.33;;;0.57;;
18190;SDS011;47004;51.366;12.348;2022-07-10T00:18:12;1.83;;;0.70;;
18190;SDS011;47004;51.366;12.348;2022-07-10T00:20:14;3.00;;;0.70;;
18190;SDS011;47004;51.366;12.348;2022-07-10T00:22:16;2.37;;;0.70;;
18190;SDS011;47004;51.366;12.348;2022-07-10T00:24:18;6.93;;;0.70;;
18190;SDS011;47004;51.366;12.348;2022-07-10T00:26:19;2.93;;;0.80;;
18190;SDS011;47004;51.366;12.348;2022-07-10T00:28:23;3.47;;;0.80;;
18190;SDS011;47004;51.366;12.348;2022-07-10T00:30:25;3.57;;;0.63;;
18190;SDS011;47004;51.366;12.348;2022-07-10T00:32:27;3.10;;;0.73;;
18190;SDS011;47004;51.366;12.348;2022-07-10T00:34:28;1.60;;;0.70;;
18190;SDS011;47004;51.366;12.348;2022-07-10T00:36:30;1.63;;;0.90;;
18190;SDS011;47004;51.366;12.348;2022-07-10T00:38:32;4.00;;;0.60;;
18190;SDS011;47004;51.366;12.348;2022-07-10T00:40:35;2.63;;;0.70;;
18190;SDS011;47004;51.366;12.348;2022-07-10T00:42:36;1.90;;;0.60;;
18190;SDS011;47004;51.366;12.348;2022-07-10T00:44:40;1.40;;;0.80;;
18190;SDS011;47004;51.366;12.348;2022-07-10T00:46:42;1.87;;;0.83;;
18190;SDS011;47004;51.366;12.348;2022-07-10T00:48:44;2.50;;;0.70;;
18190;SDS011;47004;51.366;12.348;2022-07-10T00:50:46;2.17;;;0.90;;
18190;SDS011;47004;51.366;12.348;2022-07-10T00:52:48;1.27;;;0.57;;
18190;SDS011;47004;51.366;12.348;2022-07-10T00:54:50;2.83;;;0.67;;
18190;SDS011;47004;51.366;12.348;2022-07-10T00:56:52;3.60;;;0.80;;
18190;SDS011;47004;51.366;12.348;2022-07-10T00:58:55;2.63;;;0.60;;
18190;SDS011;47004;51.366;12.348;2022-07-10T01:00:58;3.13;;;0.90;;
18190;SDS011;47004;51.366;12.348;2022-07-10T01:03:01;3.17;;;0.90;;
18190;SDS011;47004;51.366;12.348;2022-07-10T01:05:03;4.33;;;0.80;;
18190;SDS011;47004;51.366;12.348;2022-07-10T01:07:05;4.93;;;0.87;;
18190;SDS011;47004;51.366;12.348;2022-07-10T01:09:07;4.80;;;0.70;;
18190;SDS011;47004;51.366;12.348;2022-07-10T01:11:09;3.17;;;0.73;;
18190;SDS011;47004;51.366;12.348;2022-07-10T01:13:11;2.37;;;0.90;;
18190;SDS011;47004;51.366;12.348;2022-07-10T01:15:13;3.43;;;0.67;;
18190;SDS011;47004;51.366;12.348;2022-07-10T01:17:16;1.80;;;0.63;;
18190;SDS011;47004;51.366;12.348;2022-07-10T01:19:19;4.20;;;0.83;;
18190;SDS011;47004;51.366;12.348;2022-07-10T01:21:26;5.60;;;1.13;;
18190;SDS011;47004;51.366;12.348;2022-07-10T01:23:29;3.87;;;0.70;;
18190;SDS011;47004;51.366;12.348;2022-07-10T01:25:31;3.50;;;0.63;;
18190;SDS011;47004;51.366;12.348;2022-07-10T01:27:33;3.63;;;0.80;;
18190;SDS011;47004;51.366;12.348;2022-07-10T01:29:35;4.33;;;0.90;;
18190;SDS011;47004;51.366;12.348;2022-07-10T01:31:37;3.23;;;0.80;;
18190;SDS011;47004;51.366;12.348;2022-07-10T01:33:40;2.73;;;0.80;;
18190;SDS011;47004;51.366;12.348;2022-07-10T01:35:42;2.97;;;0.83;;
18190;SDS011;47004;51.366;12.348;2022-07-10T01:37:46;3.93;;;0.80;;
18190;SDS011;47004;51.366;12.348;2022-07-10T01:39:48;4.63;;;0.90;;
18190;SDS011;47004;51.366;12.348;2022-07-10T01:41:50;2.50;;;0.67;;
18190;SDS011;47004;51.366;12.348;2022-07-10T01:43:52;2.13;;;0.70;;
18190;SDS011;47004;51.366;12.348;2022-07-10T01:45:54;4.87;;;0.90;;
18190;SDS011;47004;51.366;12.348;2022-07-10T01:47:56;3.73;;;0.90;;
18190;SDS011;47004;51.366;12.348;2022-07-10T01:49:58;1.90;;;0.97;;
18190;SDS011;47004;51.366;12.348;2022-07-10T01:52:00;2.40;;;0.60;;
18190;SDS011;47004;51.366;12.348;2022-07-10T01:54:03;1.93;;;0.80;;
18190;SDS011;47004;51.366;12.348;2022-07-10T01:56:06;5.43;;;0.80;;
18190;SDS011;47004;51.366;12.348;2022-07-10T01:58:09;3.30;;;0.83;;
18190;SDS011;47004;51.366;12.348;2022-07-10T02:00:11;2.00;;;0.63;;
18190;SDS011;47004;51.366;12.348;2022-07-10T02:02:14;2.90;;;0.80;;
18190;SDS011;47004;51.366;12.348;2022-07-10T02:04:40;3.03;;;0.70;;
18190;SDS011;47004;51.366;12.348;2022-07-10T02:07:06;4.40;;;0.93;;
18190;SDS011;47004;51.366;12.348;2022-07-10T02:09:33;5.50;;;1.47;;
18190;SDS011;47004;51.366;12.348;2022-07-10T02:11:59;2.73;;;0.70;;
18190;SDS011;47004;51.366;12.348;2022-07-10T02:14:24;4.57;;;0.80;;
18190;SDS011;47004;51.366;12.348;2022-07-10T02:16:50;3.63;;;0.83;;
18190;SDS011;47004;51.366;12.348;2022-07-10T02:19:16;2.60;;;0.70;;
18190;SDS011;47004;51.366;12.348;2022-07-10T02:21:42;4.13;;;0.80;;
18190;SDS011;47004;51.366;12.348;2022-07-10T02:24:08;3.77;;;0.80;;
18190;SDS011;47004;51.366;12.348;2022-07-10T02:26:36;1.20;;;0.60;;
18190;SDS011;47004;51.366;12.348;2022-07-10T02:29:01;1.47;;;0.70;;
18190;SDS011;47004;51.366;12.348;2022-07-10T02:31:27;5.10;;;0.97;;
18190;SDS011;47004;51.366;12.348;2022-07-10T02:33:53;2.00;;;0.70;;
18190;SDS011;47004;51.366;12.348;2022-07-10T02:36:20;2.63;;;0.63;;
18190;SDS011;47004;51.366;12.348;2022-07-10T02:38:45;4.00;;;0.90;;
18190;SDS011;47004;51.366;12.348;2022-07-10T02:41:12;4.20;;;1.00;;
18190;SDS011;47004;51.366;12.348;2022-07-10T02:43:39;4.67;;;0.73;;
18190;SDS011;47004;51.366;12.348;2022-07-10T02:46:05;3.57;;;0.63;;
18190;SDS011;47004;51.366;12.348;2022-07-10T02:48:31;3.20;;;1.03;;
18190;SDS011;47004;51.366;12.348;2022-07-10T02:50:56;1.17;;;0.70;;
18190;SDS011;47004;51.366;12.348;2022-07-10T02:53:23;3.93;;;0.70;;
18190;SDS011;47004;51.366;12.348;2022-07-10T02:55:49;2.03;;;0.70;;
18190;SDS011;47004;51.366;12.348;2022-07-10T02:58:17;1.57;;;0.80;;
18190;SDS011;47004;51.366;12.348;2022-07-10T03:00:45;3.13;;;1.03;;
18190;SDS011;47004;51.366;12.348;2022-07-10T03:03:11;3.93;;;0.80;;
18190;SDS011;47004;51.366;12.348;2022-07-10T03:05:38;3.73;;;0.90;;
18190;SDS011;47004;51.366;12.348;2022-07-10T03:08:04;2.73;;;0.80;;
18190;SDS011;47004;51.366;12.348;2022-07-10T03:10:30;2.83;;;0.90;;
18190;SDS011;47004;51.366;12.348;2022-07-10T03:12:56;3.47;;;0.97;;
18190;SDS011;47004;51.366;12.348;2022-07-10T03:15:24;5.70;;;1.13;;
18190;SDS011;47004;51.366;12.348;2022-07-10T03:17:52;4.37;;;1.13;;
18190;SDS011;47004;51.366;12.348;2022-07-10T03:20:17;5.63;;;0.90;;
18190;SDS011;47004;51.366;12.348;2022-07-10T03:22:44;4.07;;;1.13;;
18190;SDS011;47004;51.366;12.348;2022-07-10T03:25:10;1.93;;;0.80;;
18190;SDS011;47004;51.366;12.348;2022-07-10T03:27:35;3.53;;;0.97;;
18190;SDS011;47004;51.366;12.348;2022-07-10T03:30:02;3.37;;;0.80;;
18190;SDS011;47004;51.366;12.348;2022-07-10T03:32:29;3.13;;;0.83;;
18190;SDS011;47004;51.366;12.348;2022-07-10T03:34:56;2.93;;;0.90;;
18190;SDS011;47004;51.366;12.348;2022-07-10T03:37:22;3.33;;;0.80;;
18190;SDS011;47004;51.366;12.348;2022-07-10T03:39:48;4.60;;;0.90;;
18190;SDS011;47004;51.366;12.348;2022-07-10T03:42:15;4.10;;;1.10;;
18190;SDS011;47004;51.366;12.348;2022-07-10T03:44:40;2.77;;;0.70;;
18190;SDS011;47004;51.366;12.348;2022-07-10T03:47:07;5.07;;;1.30;;
18190;SDS011;47004;51.366;12.348;2022-07-10T03:49:33;3.67;;;0.77;;
18190;SDS011;47004;51.366;12.348;2022-07-10T03:52:00;2.23;;;0.70;;
18190;SDS011;47004;51.366;12.348;2022-07-10T03:54:28;3.67;;;0.87;;
18190;SDS011;47004;51.366;12.348;2022-07-10T03:56:55;3.00;;;0.90;;
18190;SDS011;47004;51.366;12.348;2022-07-10T03:59:20;4.60;;;0.90;;
18190;SDS011;47004;51.366;12.348;2022-07-10T04:01:46;3.83;;;0.80;;
18190;SDS011;47004;51.366;12.348;2022-07-10T04:04:12;2.37;;;1.10;;
18190;SDS011;47004;51.366;12.348;2022-07-10T04:06:39;4.97;;;1.10;;
18190;SDS011;47004;51.366;12.348;2022-07-10T04:09:06;5.73;;;1.13;;
18190;SDS011;47004;51.366;12.348;2022-07-10T04:11:31;5.67;;;1.43;;
18190;SDS011;47004;51.366;12.348;2022-07-10T04:13:57;7.00;;;1.60;;
18190;SDS011;47004;51.366;12.348;2022-07-10T04:16:23;4.33;;;0.90;;
18190;SDS011;47004;51.366;12.348;2022-07-10T04:18:49;1.47;;;0.80;;
18190;SDS011;47004;51.366;12.348;2022-07-10T04:20:52;4.57;;;1.10;;
18190;SDS011;47004;51.366;12.348;2022-07-10T04:22:54;3.50;;;0.90;;
18190;SDS011;47004;51.366;12.348;2022-07-10T04:24:58;3.40;;;0.63;;
18190;SDS011;47004;51.366;12.348;2022-07-10T04:27:00;5.27;;;1.00;;
18190;SDS011;47004;51.366;12.348;2022-07-10T04:29:02;3.17;;;0.80;;
18190;SDS011;47004;51.366;12.348;2022-07-10T04:31:04;1.50;;;0.70;;
18190;SDS011;47004;51.366;12.348;2022-07-10T04:33:06;4.27;;;0.90;;
18190;SDS011;47004;51.366;12.348;2022-07-10T04:35:08;3.80;;;1.00;;
18190;SDS011;47004;51.366;12.348;2022-07-10T04:37:10;3.57;;;1.00;;
18190;SDS011;47004;51.366;12.348;2022-07-10T04:39:12;5.43;;;1.23;;
18190;SDS011;47004;51.366;12.348;2022-07-10T04:41:19;7.30;;;1.00;;
18190;SDS011;47004;51.366;12.348;2022-07-10T04:43:21;2.63;;;0.70;;
18190;SDS011;47004;51.366;12.348;2022-07-10T04:45:22;4.80;;;0.97;;
18190;SDS011;47004;51.366;12.348;2022-07-10T04:47:24;7.37;;;1.00;;
18190;SDS011;47004;51.366;12.348;2022-07-10T04:49:27;4.37;;;0.70;;
18190;SDS011;47004;51.366;12.348;2022-07-10T04:51:29;6.37;;;0.97;;
18190;SDS011;47004;51.366;12.348;2022-07-10T04:53:31;2.20;;;0.87;;
18190;SDS011;47004;51.366;12.348;2022-07-10T04:55:33;1.23;;;0.60;;
18190;SDS011;47004;51.366;12.348;2022-07-10T04:57:36;3.73;;;0.80;;
18190;SDS011;47004;51.366;12.348;2022-07-10T04:59:39;2.53;;;0.97;;
18190;SDS011;47004;51.366;12.348;2022-07-10T05:01:41;4.47;;;0.90;;
18190;SDS011;47004;51.366;12.348;2022-07-10T05:03:43;1.93;;;0.67;;
18190;SDS011;47004;51.366;12.348;2022-07-10T05:05:45;2.47;;;0.63;;
18190;SDS011;47004;51.366;12.348;2022-07-10T05:07:47;4.30;;;0.90;;
18190;SDS011;47004;51.366;12.348;2022-07-10T05:09:49;3.10;;;0.60;;
18190;SDS011;47004;51.366;12.348;2022-07-10T05:11:51;1.50;;;0.60;;
18190;SDS011;47004;51.366;12.348;2022-07-10T05:13:54;1.97;;;0.70;;
18190;SDS011;47004;51.366;12.348;2022-07-10T05:15:56;2.73;;;0.77;;
18190;SDS011;47004;51.366;12.348;2022-07-10T05:17:58;1.67;;;0.63;;
18190;SDS011;47004;51.366;12.348;2022-07-10T05:20:00;0.70;;;0.70;;
18190;SDS011;47004;51.366;12.348;2022-07-10T05:22:02;2.93;;;1.00;;
18190;SDS011;47004;51.366;12.348;2022-07-10T05:24:05;7.93;;;1.00;;
18190;SDS011;47004;51.366;12.348;2022-07-10T05:26:07;2.50;;;0.93;;
18190;SDS011;47004;51.366;12.348;2022-07-10T05:28:09;2.80;;;0.80;;
18190;SDS011;47004;51.366;12.348;2022-07-10T05:30:14;2.83;;;0.80;;
18190;SDS011;47004;51.366;12.348;2022-07-10T05:32:16;2.40;;;0.70;;
18190;SDS011;47004;51.366;12.348;2022-07-10T05:34:18;2.97;;;0.87;;
18190;SDS011;47004;51.366;12.348;2022-07-10T05:36:23;4.63;;;1.10;;
18190;SDS011;47004;51.366;12.348;2022-07-10T05:38:25;2.47;;;0.97;;
18190;SDS011;47004;51.366;12.348;2022-07-10T05:40:27;2.53;;;0.90;;
18190;SDS011;47004;51.366;12.348;2022-07-10T05:42:29;3.13;;;1.00;;
18190;SDS011;47004;51.366;12.348;2022-07-10T05:44:31;4.27;;;1.00;;
18190;SDS011;47004;51.366;12.348;2022-07-10T05:46:34;2.50;;;1.00;;
18190;SDS011;47004;51.366;12.348;2022-07-10T05:48:36;2.40;;;1.00;;
18190;SDS011;47004;51.366;12.348;2022-07-10T05:50:39;1.47;;;0.80;;
18190;SDS011;47004;51.366;12.348;2022-07-10T05:52:41;4.90;;;0.97;;
18190;SDS011;47004;51.366;12.348;2022-07-10T05:54:43;4.83;;;1.07;;
18190;SDS011;47004;51.366;12.348;2022-07-10T05:56:45;3.60;;;1.13;;
18190;SDS011;47004;51.366;12.348;2022-07-10T05:58:47;2.50;;;1.20;;
18190;SDS011;47004;51.366;12.348;2022-07-10T06:00:49;5.60;;;1.10;;
18190;SDS011;47004;51.366;12.348;2022-07-10T06:02:53;3.87;;;1.30;;
18190;SDS011;47004;51.366;12.348;2022-07-10T06:04:55;4.40;;;1.20;;
18190;SDS011;47004;51.366;12.348;2022-07-10T06:06:57;3.50;;;1.03;;
18190;SDS011;47004;51.366;12.348;2022-07-10T06:08:59;2.30;;;1.13;;
18190;SDS011;47004;51.366;12.348;2022-07-10T06:11:01;1.57;;;1.00;;
18190;SDS011;47004;51.366;12.348;2022-07-10T06:13:03;3.30;;;1.10;;
18190;SDS011;47004;51.366;12.348;2022-07-10T06:15:05;2.43;;;1.00;;
18190;SDS011;47004;51.366;12.348;2022-07-10T06:17:07;1.40;;;0.90;;
18190;SDS011;47004;51.366;12.348;2022-07-10T06:19:11;3.23;;;1.13;;
18190;SDS011;47004;51.366;12.348;2022-07-10T06:21:13;2.03;;;1.00;;
18190;SDS011;47004;51.366;12.348;2022-07-10T06:23:15;3.83;;;1.00;;
18190;SDS011;47004;51.366;12.348;2022-07-10T06:25:17;4.10;;;1.00;;
18190;SDS011;47004;51.366;12.348;2022-07-10T06:27:19;4.13;;;1.30;;
18190;SDS011;47004;51.366;12.348;2022-07-10T06:29:20;5.17;;;1.00;;
18190;SDS011;47004;51.366;12.348;2022-07-10T06:31:22;4.23;;;0.97;;
18190;SDS011;47004;51.366;12.348;2022-07-10T06:33:24;6.30;;;1.37;;
18190;SDS011;47004;51.366;12.348;2022-07-10T06:35:28;1.20;;;0.90;;
18190;SDS011;47004;51.366;12.348;2022-07-10T06:37:30;3.50;;;1.00;;
18190;SDS011;47004;51.366;12.348;2022-07-10T06:39:32;1.17;;;1.00;;
18190;SDS011;47004;51.366;12.348;2022-07-10T06:41:35;2.20;;;0.93;;
18190;SDS011;47004;51.366;12.348;2022-07-10T06:43:37;4.33;;;1.30;;
18190;SDS011;47004;51.366;12.348;2022-07-10T06:45:39;1.87;;;1.10;;
18190;SDS011;47004;51.366;12.348;2022-07-10T06:47:44;3.10;;;1.30;;
18190;SDS011;47004;51.366;12.348;2022-07-10T06:49:58;3.73;;;1.13;;
18190;SDS011;47004;51.366;12.348;2022-07-10T06:52:02;2.40;;;1.10;;
18190;SDS011;47004;51.366;12.348;2022-07-10T06:54:05;1.10;;;1.00;;
18190;SDS011;47004;51.366;12.348;2022-07-10T06:56:07;1.67;;;1.10;;
18190;SDS011;47004;51.366;12.348;2022-07-10T06:58:09;2.70;;;1.20;;
18190;SDS011;47004;51.366;12.348;2022-07-10T07:00:11;2.30;;;1.23;;
18190;SDS011;47004;51.366;12.348;2022-07-10T07:02:13;2.20;;;1.13;;
18190;SDS011;47004;51.366;12.348;2022-07-10T07:04:15;3.10;;;1.30;;
18190;SDS011;47004;51.366;12.348;2022-07-10T07:06:17;3.90;;;1.50;;
18190;SDS011;47004;51.366;12.348;2022-07-10T07:08:20;2.03;;;1.17;;
18190;SDS011;47004;51.366;12.348;2022-07-10T07:10:22;2.10;;;1.20;;
18190;SDS011;47004;51.366;12.348;2022-07-10T07:12:24;2.07;;;1.30;;
18190;SDS011;47004;51.366;12.348;2022-07-10T07:14:26;6.83;;;1.70;;
18190;SDS011;47004;51.366;12.348;2022-07-10T07:16:28;4.23;;;1.50;;
18190;SDS011;47004;51.366;12.348;2022-07-10T07:18:41;4.60;;;1.53;;
18190;SDS011;47004;51.366;12.348;2022-07-10T07:20:49;4.90;;;1.37;;
18190;SDS011;47004;51.366;12.348;2022-07-10T07:23:08;3.07;;;1.37;;
18190;SDS011;47004;51.366;12.348;2022-07-10T07:25:11;2.77;;;1.40;;
18190;SDS011;47004;51.366;12.348;2022-07-10T07:27:13;1.03;;;0.97;;
18190;SDS011;47004;51.366;12.348;2022-07-10T07:29:15;2.33;;;1.20;;
18190;SDS011;47004;51.366;12.348;2022-07-10T07:31:18;4.53;;;1.37;;
18190;SDS011;47004;51.366;12.348;2022-07-10T07:33:20;3.67;;;1.37;;
18190;SDS011;47004;51.366;12.348;2022-07-10T07:35:22;4.10;;;1.67;;
18190;SDS011;47004;51.366;12.348;2022-07-10T07:37:33;3.83;;;1.20;;
18190;SDS011;47004;51.366;12.348;2022-07-10T07:39:37;3.27;;;1.40;;
18190;SDS011;47004;51.366;12.348;2022-07-10T07:41:40;3.10;;;1.13;;
18190;SDS011;47004;51.366;12.348;2022-07-10T07:43:42;2.63;;;1.13;;
18190;SDS011;47004;51.366;12.348;2022-07-10T07:45:44;3.33;;;1.40;;
18190;SDS011;47004;51.366;12.348;2022-07-10T07:47:48;2.63;;;1.10;;
18190;SDS011;47004;51.366;12.348;2022-07-10T07:49:51;2.97;;;1.20;;
18190;SDS011;47004;51.366;12.348;2022-07-10T07:51:53;2.80;;;1.27;;
18190;SDS011;47004;51.366;12.348;2022-07-10T07:53:55;5.30;;;1.67;;
18190;SDS011;47004;51.366;12.348;2022-07-10T07:55:57;1.63;;;1.00;;
18190;SDS011;47004;51.366;12.348;2022-07-10T07:58:01;2.63;;;1.30;;
18190;SDS011;47004;51.366;12.348;2022-07-10T08:00:05;1.53;;;1.10;;
18190;SDS011;47004;51.366;12.348;2022-07-10T08:02:08;2.90;;;1.20;;
18190;SDS011;47004;51.366;12.348;2022-07-10T08:04:10;3.53;;;1.83;;
18190;SDS011;47004;51.366;12.348;2022-07-10T08:06:12;6.70;;;2.73;;
18190;SDS011;47004;51.366;12.348;2022-07-10T08:08:14;3.43;;;1.90;;
18190;SDS011;47004;51.366;12.348;2022-07-10T08:10:17;3.57;;;1.47;;
18190;SDS011;47004;51.366;12.348;2022-07-10T08:12:20;3.97;;;1.20;;
18190;SDS011;47004;51.366;12.348;2022-07-10T08:14:23;5.43;;;1.47;;
18190;SDS011;47004;51.366;12.348;2022-07-10T08:16:25;3.17;;;1.10;;
18190;SDS011;47004;51.366;12.348;2022-07-10T08:18:27;2.87;;;1.10;;
18190;SDS011;47004;51.366;12.348;2022-07-10T08:20:29;2.90;;;1.20;;
18190;SDS011;47004;51.366;12.348;2022-07-10T08:22:31;3.17;;;1.10;;
18190;SDS011;47004;51.366;12.348;2022-07-10T08:24:33;2.30;;;1.17;;
18190;SDS011;47004;51.366;12.348;2022-07-10T08:26:35;2.70;;;1.10;;
18190;SDS011;47004;51.366;12.348;2022-07-10T08:28:37;2.70;;;1.03;;
18190;SDS011;47004;51.366;12.348;2022-07-10T08:30:40;2.50;;;1.00;;
18190;SDS011;47004;51.366;12.348;2022-07-10T08:32:43;3.27;;;1.00;;
18190;SDS011;47004;51.366;12.348;2022-07-10T08:34:45;3.03;;;1.10;;
18190;SDS011;47004;51.366;12.348;2022-07-10T08:36:48;2.80;;;1.03;;
18190;SDS011;47004;51.366;12.348;2022-07-10T08:38:50;5.50;;;1.33;;
18190;SDS011;47004;51.366;12.348;2022-07-10T08:40:54;3.67;;;1.27;;
18190;SDS011;47004;51.366;12.348;2022-07-10T08:42:57;5.57;;;1.10;;
18190;SDS011;47004;51.366;12.348;2022-07-10T08:44:59;4.43;;;0.97;;
18190;SDS011;47004;51.366;12.348;2022-07-10T08:47:03;2.07;;;1.00;;
18190;SDS011;47004;51.366;12.348;2022-07-10T08:49:08;4.90;;;1.17;;
18190;SDS011;47004;51.366;12.348;2022-07-10T08:51:11;3.63;;;1.17;;
18190;SDS011;47004;51.366;12.348;2022-07-10T08:53:18;2.93;;;1.30;;
18190;SDS011;47004;51.366;12.348;2022-07-10T08:55:26;3.63;;;1.50;;
18190;SDS011;47004;51.366;12.348;2022-07-10T08:57:28;5.87;;;1.50;;
18190;SDS011;47004;51.366;12.348;2022-07-10T08:59:31;2.80;;;1.07;;
18190;SDS011;47004;51.366;12.348;2022-07-10T09:01:33;3.93;;;1.17;;
18190;SDS011;47004;51.366;12.348;2022-07-10T09:03:37;3.83;;;1.53;;
18190;SDS011;47004;51.366;12.348;2022-07-10T09:05:39;1.63;;;1.00;;
18190;SDS011;47004;51.366;12.348;2022-07-10T09:07:41;3.90;;;1.23;;
18190;SDS011;47004;51.366;12.348;2022-07-10T09:09:53;4.43;;;1.00;;
18190;SDS011;47004;51.366;12.348;2022-07-10T09:11:56;7.30;;;1.10;;
18190;SDS011;47004;51.366;12.348;2022-07-10T09:13:59;5.73;;;1.20;;
18190;SDS011;47004;51.366;12.348;2022-07-10T09:16:04;3.20;;;1.13;;
18190;SDS011;47004;51.366;12.348;2022-07-10T09:18:07;2.73;;;0.90;;
18190;SDS011;47004;51.366;12.348;2022-07-10T09:20:11;6.10;;;1.47;;
18190;SDS011;47004;51.366;12.348;2022-07-10T09:22:26;2.67;;;1.23;;
18190;SDS011;47004;51.366;12.348;2022-07-10T09:24:34;6.00;;;1.20;;
18190;SDS011;47004;51.366;12.348;2022-07-10T09:26:38;3.30;;;1.20;;
18190;SDS011;47004;51.366;12.348;2022-07-10T09:28:41;3.30;;;1.20;;
18190;SDS011;47004;51.366;12.348;2022-07-10T09:30:43;5.10;;;1.47;;
18190;SDS011;47004;51.366;12.348;2022-07-10T09:32:45;5.20;;;1.30;;
18190;SDS011;47004;51.366;12.348;2022-07-10T09:34:48;3.93;;;1.20;;
18190;SDS011;47004;51.366;12.348;2022-07-10T09:37:22;4.73;;;1.20;;
18190;SDS011;47004;51.366;12.348;2022-07-10T09:39:27;6.20;;;1.30;;
18190;SDS011;47004;51.366;12.348;2022-07-10T09:41:29;3.67;;;1.40;;
18190;SDS011;47004;51.366;12.348;2022-07-10T09:43:42;3.70;;;1.23;;
18190;SDS011;47004;51.366;12.348;2022-07-10T09:45:45;2.93;;;1.10;;
18190;SDS011;47004;51.366;12.348;2022-07-10T09:47:58;3.17;;;1.40;;
18190;SDS011;47004;51.366;12.348;2022-07-10T09:50:04;4.23;;;1.23;;
18190;SDS011;47004;51.366;12.348;2022-07-10T09:52:26;5.57;;;1.50;;
18190;SDS011;47004;51.366;12.348;2022-07-10T09:54:30;6.83;;;1.60;;
18190;SDS011;47004;51.366;12.348;2022-07-10T09:56:37;5.20;;;1.60;;
18190;SDS011;47004;51.366;12.348;2022-07-10T09:58:42;3.77;;;1.60;;
18190;SDS011;47004;51.366;12.348;2022-07-10T10:00:46;4.50;;;1.80;;
18190;SDS011;47004;51.366;12.348;2022-07-10T10:02:49;3.73;;;1.50;;
18190;SDS011;47004;51.366;12.348;2022-07-10T10:04:54;5.30;;;1.60;;
18190;SDS011;47004;51.366;12.348;2022-07-10T10:06:56;5.33;;;1.30;;
18190;SDS011;47004;51.366;12.348;2022-07-10T10:09:04;4.23;;;1.50;;
18190;SDS011;47004;51.366;12.348;2022-07-10T10:11:13;3.70;;;1.40;;
18190;SDS011;47004;51.366;12.348;2022-07-10T10:13:19;3.40;;;1.30;;
18190;SDS011;47004;51.366;12.348;2022-07-10T10:15:21;6.50;;;1.43;;
18190;SDS011;47004;51.366;12.348;2022-07-10T10:17:24;4.90;;;1.63;;
18190;SDS011;47004;51.366;12.348;2022-07-10T10:19:28;6.20;;;1.40;;
18190;SDS011;47004;51.366;12.348;2022-07-10T10:21:50;5.27;;;1.80;;
18190;SDS011;47004;51.366;12.348;2022-07-10T10:23:56;6.30;;;1.40;;
18190;SDS011;47004;51.366;12.348;2022-07-10T10:26:00;4.73;;;1.23;;
18190;SDS011;47004;51.366;12.348;2022-07-10T10:28:02;5.70;;;1.40;;
18190;SDS011;47004;51.366;12.348;2022-07-10T10:30:10;6.50;;;1.23;;
18190;SDS011;47004;51.366;12.348;2022-07-10T10:32:13;4.97;;;1.33;;
18190;SDS011;47004;51.366;12.348;2022-07-10T10:36:48;3.03;;;1.20;;
18190;SDS011;47004;51.366;12.348;2022-07-10T10:39:03;4.10;;;1.10;;
18190;SDS011;47004;51.366;12.348;2022-07-10T10:41:24;3.40;;;1.10;;
18190;SDS011;47004;51.366;12.348;2022-07-10T10:43:27;2.40;;;1.10;;
18190;SDS011;47004;51.366;12.348;2022-07-10T10:45:32;4.47;;;1.33;;
18190;SDS011;47004;51.366;12.348;2022-07-10T10:47:49;3.43;;;1.20;;
18190;SDS011;47004;51.366;12.348;2022-07-10T10:49:58;3.80;;;1.23;;
18190;SDS011;47004;51.366;12.348;2022-07-10T10:52:02;4.07;;;1.10;;
18190;SDS011;47004;51.366;12.348;2022-07-10T10:54:07;4.57;;;1.20;;
18190;SDS011;47004;51.366;12.348;2022-07-10T10:56:21;6.27;;;1.10;;
18190;SDS011;47004;51.366;12.348;2022-07-10T10:58:26;2.90;;;1.13;;
18190;SDS011;47004;51.366;12.348;2022-07-10T11:00:33;3.27;;;1.10;;
18190;SDS011;47004;51.366;12.348;2022-07-10T11:02:40;6.17;;;1.50;;
18190;SDS011;47004;51.366;12.348;2022-07-10T11:04:42;3.13;;;0.93;;
18190;SDS011;47004;51.366;12.348;2022-07-10T11:06:47;4.70;;;1.23;;
18190;SDS011;47004;51.366;12.348;2022-07-10T11:08:50;3.87;;;1.20;;
18190;SDS011;47004;51.366;12.348;2022-07-10T11:10:52;3.00;;;1.30;;
18190;SDS011;47004;51.366;12.348;2022-07-10T11:12:59;4.13;;;1.30;;
18190;SDS011;47004;51.366;12.348;2022-07-10T11:15:02;3.50;;;1.00;;
18190;SDS011;47004;51.366;12.348;2022-07-10T11:17:15;4.87;;;1.30;;
18190;SDS011;47004;51.366;12.348;2022-07-10T11:19:24;3.47;;;1.13;;
18190;SDS011;47004;51.366;12.348;2022-07-10T11:21:26;4.33;;;1.37;;
18190;SDS011;47004;51.366;12.348;2022-07-10T11:23:48;3.80;;;1.13;;
18190;SDS011;47004;51.366;12.348;2022-07-10T11:25:59;5.47;;;1.67;;
18190;SDS011;47004;51.366;12.348;2022-07-10T11:28:10;4.07;;;2.17;;
18190;SDS011;47004;51.366;12.348;2022-07-10T11:30:13;5.83;;;1.63;;
18190;SDS011;47004;51.366;12.348;2022-07-10T11:32:15;5.93;;;1.53;;
18190;SDS011;47004;51.366;12.348;2022-07-10T11:34:18;6.00;;;1.57;;
18190;SDS011;47004;51.366;12.348;2022-07-10T11:36:21;6.00;;;1.43;;
18190;SDS011;47004;51.366;12.348;2022-07-10T11:38:26;2.87;;;1.40;;
18190;SDS011;47004;51.366;12.348;2022-07-10T11:40:28;5.17;;;1.40;;
18190;SDS011;47004;51.366;12.348;2022-07-10T11:44:55;3.17;;;1.20;;
18190;SDS011;47004;51.366;12.348;2022-07-10T11:46:57;4.23;;;1.30;;
18190;SDS011;47004;51.366;12.348;2022-07-10T11:49:04;2.97;;;1.13;;
18190;SDS011;47004;51.366;12.348;2022-07-10T11:51:15;3.17;;;1.30;;
18190;SDS011;47004;51.366;12.348;2022-07-10T11:53:22;4.60;;;1.50;;
18190;SDS011;47004;51.366;12.348;2022-07-10T11:55:26;5.13;;;1.33;;
18190;SDS011;47004;51.366;12.348;2022-07-10T11:57:38;4.17;;;1.20;;
18190;SDS011;47004;51.366;12.348;2022-07-10T11:59:41;5.23;;;1.37;;
18190;SDS011;47004;51.366;12.348;2022-07-10T12:01:45;3.93;;;1.37;;
18190;SDS011;47004;51.366;12.348;2022-07-10T12:03:59;2.47;;;1.07;;
18190;SDS011;47004;51.366;12.348;2022-07-10T12:06:02;3.87;;;1.30;;
18190;SDS011;47004;51.366;12.348;2022-07-10T12:08:05;4.63;;;1.30;;
18190;SDS011;47004;51.366;12.348;2022-07-10T12:10:08;4.07;;;1.30;;
18190;SDS011;47004;51.366;12.348;2022-07-10T12:12:10;6.10;;;1.27;;
18190;SDS011;47004;51.366;12.348;2022-07-10T12:14:13;3.93;;;1.20;;
18190;SDS011;47004;51.366;12.348;2022-07-10T12:16:17;3.57;;;0.90;;
18190;SDS011;47004;51.366;12.348;2022-07-10T12:18:21;4.03;;;1.00;;
18190;SDS011;47004;51.366;12.348;2022-07-10T12:20:23;3.50;;;1.10;;
18190;SDS011;47004;51.366;12.348;2022-07-10T12:22:26;3.07;;;0.90;;
18190;SDS011;47004;51.366;12.348;2022-07-10T12:24:28;1.60;;;0.80;;
18190;SDS011;47004;51.366;12.348;2022-07-10T12:26:31;4.90;;;1.30;;
18190;SDS011;47004;51.366;12.348;2022-07-10T12:28:47;4.17;;;1.00;;
18190;SDS011;47004;51.366;12.348;2022-07-10T12:30:53;3.20;;;1.30;;
18190;SDS011;47004;51.366;12.348;2022-07-10T12:32:54;3.60;;;1.20;;
18190;SDS011;47004;51.366;12.348;2022-07-10T12:35:07;3.87;;;1.37;;
18190;SDS011;47004;51.366;12.348;2022-07-10T12:37:14;4.50;;;1.23;;
18190;SDS011;47004;51.366;12.348;2022-07-10T12:39:17;4.80;;;1.50;;
18190;SDS011;47004;51.366;12.348;2022-07-10T12:41:24;2.87;;;1.10;;